Lang Township, Maine
Current Conditions -  °F | °C
As of 4:52 PM on Wednesday 26 Nov 2014 (Local Time) from KBML Reporting Station
Light Snow Light Snow  
Wind Chill: 25°   Ceiling: 1200
Heat Index: 30°   Visibility: 1.2mi
Dew Point: 28°   Wind: 5mph
Humidity: 92%   Direction: 320°NW
Pressure: 30.02"   Gusts: NA
Location:  44.9631°N, 70.6504°W
Report Text: KBML 262152Z AUTO 32004KT 1 1/4SM -SN BR OVC012 M01/M02 A3002 RMK AO2 SLP181 P0005 T10111022
Loading
Personal Weather Stations






























Interactive Weather Map New forecast layout! Learn more

10-Day Weather Forecast

Advertisements
Track Severe Weather on mobile